sensor_id;sensor_type;location;lat;lon;timestamp;P1;durP1;ratioP1;P2;durP2;ratioP2
27632;SDS011;15046;50.930;13.334;2023-05-07T00:01:58;20.73;;;10.77;;
27632;SDS011;15046;50.930;13.334;2023-05-07T00:04:25;17.50;;;9.98;;
27632;SDS011;15046;50.930;13.334;2023-05-07T00:06:50;15.45;;;10.45;;
27632;SDS011;15046;50.930;13.334;2023-05-07T00:09:16;17.80;;;10.00;;
27632;SDS011;15046;50.930;13.334;2023-05-07T00:11:42;19.40;;;11.10;;
27632;SDS011;15046;50.930;13.334;2023-05-07T00:14:07;17.75;;;11.43;;
27632;SDS011;15046;50.930;13.334;2023-05-07T00:16:33;17.20;;;10.95;;
27632;SDS011;15046;50.930;13.334;2023-05-07T00:18:59;18.92;;;12.57;;
27632;SDS011;15046;50.930;13.334;2023-05-07T00:21:25;18.95;;;12.48;;
27632;SDS011;15046;50.930;13.334;2023-05-07T00:23:52;21.90;;;13.60;;
27632;SDS011;15046;50.930;13.334;2023-05-07T00:26:18;18.92;;;12.55;;
27632;SDS011;15046;50.930;13.334;2023-05-07T00:28:44;20.90;;;13.85;;
27632;SDS011;15046;50.930;13.334;2023-05-07T00:31:10;22.17;;;14.20;;
27632;SDS011;15046;50.930;13.334;2023-05-07T00:33:35;20.20;;;13.73;;
27632;SDS011;15046;50.930;13.334;2023-05-07T00:36:01;21.23;;;13.77;;
27632;SDS011;15046;50.930;13.334;2023-05-07T00:38:27;22.00;;;14.25;;
27632;SDS011;15046;50.930;13.334;2023-05-07T00:40:53;21.08;;;14.68;;
27632;SDS011;15046;50.930;13.334;2023-05-07T00:43:19;24.52;;;14.55;;
27632;SDS011;15046;50.930;13.334;2023-05-07T00:45:45;24.45;;;16.10;;
27632;SDS011;15046;50.930;13.334;2023-05-07T00:48:11;22.65;;;13.95;;
27632;SDS011;15046;50.930;13.334;2023-05-07T00:50:37;22.60;;;14.77;;
27632;SDS011;15046;50.930;13.334;2023-05-07T00:53:03;23.75;;;14.90;;
27632;SDS011;15046;50.930;13.334;2023-05-07T00:55:29;24.95;;;14.27;;
27632;SDS011;15046;50.930;13.334;2023-05-07T00:57:55;22.98;;;14.85;;
27632;SDS011;15046;50.930;13.334;2023-05-07T01:00:21;22.20;;;14.48;;
27632;SDS011;15046;50.930;13.334;2023-05-07T01:02:47;22.70;;;14.70;;
27632;SDS011;15046;50.930;13.334;2023-05-07T01:05:14;24.73;;;15.40;;
27632;SDS011;15046;50.930;13.334;2023-05-07T01:07:42;22.48;;;14.07;;
27632;SDS011;15046;50.930;13.334;2023-05-07T01:10:08;23.75;;;13.98;;
27632;SDS011;15046;50.930;13.334;2023-05-07T01:12:35;26.20;;;16.13;;
27632;SDS011;15046;50.930;13.334;2023-05-07T01:15:03;24.98;;;14.77;;
27632;SDS011;15046;50.930;13.334;2023-05-07T01:17:33;24.83;;;15.80;;
27632;SDS011;15046;50.930;13.334;2023-05-07T01:20:04;28.08;;;17.33;;
27632;SDS011;15046;50.930;13.334;2023-05-07T01:22:32;23.73;;;15.82;;
27632;SDS011;15046;50.930;13.334;2023-05-07T01:25:02;26.58;;;16.33;;
27632;SDS011;15046;50.930;13.334;2023-05-07T01:27:28;27.45;;;17.08;;
27632;SDS011;15046;50.930;13.334;2023-05-07T01:29:54;24.83;;;16.83;;
27632;SDS011;15046;50.930;13.334;2023-05-07T01:32:25;27.30;;;16.15;;
27632;SDS011;15046;50.930;13.334;2023-05-07T01:34:58;23.35;;;14.55;;
27632;SDS011;15046;50.930;13.334;2023-05-07T01:37:26;21.27;;;14.35;;
27632;SDS011;15046;50.930;13.334;2023-05-07T01:39:52;24.38;;;15.20;;
27632;SDS011;15046;50.930;13.334;2023-05-07T01:42:19;24.38;;;13.98;;
27632;SDS011;15046;50.930;13.334;2023-05-07T01:44:45;21.73;;;13.65;;
27632;SDS011;15046;50.930;13.334;2023-05-07T01:47:11;22.08;;;14.48;;
27632;SDS011;15046;50.930;13.334;2023-05-07T01:49:39;23.73;;;14.60;;
27632;SDS011;15046;50.930;13.334;2023-05-07T01:52:05;21.08;;;13.40;;
27632;SDS011;15046;50.930;13.334;2023-05-07T01:54:32;21.13;;;12.88;;
27632;SDS011;15046;50.930;13.334;2023-05-07T01:56:57;20.73;;;12.85;;
27632;SDS011;15046;50.930;13.334;2023-05-07T01:59:23;20.80;;;12.25;;
27632;SDS011;15046;50.930;13.334;2023-05-07T02:01:49;20.13;;;12.32;;
27632;SDS011;15046;50.930;13.334;2023-05-07T02:04:15;21.65;;;12.65;;
27632;SDS011;15046;50.930;13.334;2023-05-07T02:06:41;20.17;;;11.77;;
27632;SDS011;15046;50.930;13.334;2023-05-07T02:09:06;18.20;;;12.05;;
27632;SDS011;15046;50.930;13.334;2023-05-07T02:11:34;19.38;;;12.65;;
27632;SDS011;15046;50.930;13.334;2023-05-07T02:14:00;17.00;;;11.40;;
27632;SDS011;15046;50.930;13.334;2023-05-07T02:16:26;17.90;;;11.52;;
27632;SDS011;15046;50.930;13.334;2023-05-07T02:18:51;19.17;;;11.55;;
27632;SDS011;15046;50.930;13.334;2023-05-07T02:21:17;21.05;;;12.82;;
27632;SDS011;15046;50.930;13.334;2023-05-07T02:23:43;19.13;;;12.05;;
27632;SDS011;15046;50.930;13.334;2023-05-07T02:26:09;21.25;;;13.77;;
27632;SDS011;15046;50.930;13.334;2023-05-07T02:28:36;21.38;;;13.82;;
27632;SDS011;15046;50.930;13.334;2023-05-07T02:31:04;21.95;;;13.52;;
27632;SDS011;15046;50.930;13.334;2023-05-07T02:33:30;20.05;;;13.13;;
27632;SDS011;15046;50.930;13.334;2023-05-07T02:35:56;22.88;;;13.80;;
27632;SDS011;15046;50.930;13.334;2023-05-07T02:38:22;22.40;;;15.07;;
27632;SDS011;15046;50.930;13.334;2023-05-07T02:40:48;25.02;;;15.82;;
27632;SDS011;15046;50.930;13.334;2023-05-07T02:43:14;24.25;;;16.33;;
27632;SDS011;15046;50.930;13.334;2023-05-07T02:45:40;25.00;;;15.85;;
27632;SDS011;15046;50.930;13.334;2023-05-07T02:48:06;23.60;;;14.90;;
27632;SDS011;15046;50.930;13.334;2023-05-07T02:50:32;23.42;;;15.23;;
27632;SDS011;15046;50.930;13.334;2023-05-07T02:52:58;25.30;;;16.00;;
27632;SDS011;15046;50.930;13.334;2023-05-07T02:55:24;25.77;;;16.48;;
27632;SDS011;15046;50.930;13.334;2023-05-07T02:57:50;27.70;;;16.17;;
27632;SDS011;15046;50.930;13.334;2023-05-07T03:00:16;26.38;;;16.92;;
27632;SDS011;15046;50.930;13.334;2023-05-07T03:02:43;26.73;;;17.02;;
27632;SDS011;15046;50.930;13.334;2023-05-07T03:05:10;25.60;;;15.70;;
27632;SDS011;15046;50.930;13.334;2023-05-07T03:07:36;28.10;;;17.48;;
27632;SDS011;15046;50.930;13.334;2023-05-07T03:10:03;26.70;;;16.13;;
27632;SDS011;15046;50.930;13.334;2023-05-07T03:12:30;28.73;;;17.77;;
27632;SDS011;15046;50.930;13.334;2023-05-07T03:14:56;27.80;;;16.98;;
27632;SDS011;15046;50.930;13.334;2023-05-07T03:17:22;26.35;;;17.15;;
27632;SDS011;15046;50.930;13.334;2023-05-07T03:19:48;28.98;;;18.65;;
27632;SDS011;15046;50.930;13.334;2023-05-07T03:22:14;30.83;;;18.10;;
27632;SDS011;15046;50.930;13.334;2023-05-07T03:24:40;29.90;;;18.90;;
27632;SDS011;15046;50.930;13.334;2023-05-07T03:27:05;29.67;;;19.15;;
27632;SDS011;15046;50.930;13.334;2023-05-07T03:29:31;31.33;;;18.92;;
27632;SDS011;15046;50.930;13.334;2023-05-07T03:31:57;27.70;;;16.83;;
27632;SDS011;15046;50.930;13.334;2023-05-07T03:34:23;28.05;;;18.70;;
27632;SDS011;15046;50.930;13.334;2023-05-07T03:36:49;31.80;;;20.73;;
27632;SDS011;15046;50.930;13.334;2023-05-07T03:39:14;34.35;;;21.38;;
27632;SDS011;15046;50.930;13.334;2023-05-07T03:41:40;34.38;;;19.45;;
27632;SDS011;15046;50.930;13.334;2023-05-07T03:44:06;30.70;;;19.70;;
27632;SDS011;15046;50.930;13.334;2023-05-07T03:46:32;30.08;;;18.50;;
27632;SDS011;15046;50.930;13.334;2023-05-07T03:48:58;32.47;;;19.48;;
27632;SDS011;15046;50.930;13.334;2023-05-07T03:51:24;28.58;;;18.42;;
27632;SDS011;15046;50.930;13.334;2023-05-07T03:53:51;30.30;;;18.05;;
27632;SDS011;15046;50.930;13.334;2023-05-07T03:56:22;29.63;;;18.38;;
27632;SDS011;15046;50.930;13.334;2023-05-07T03:58:51;27.05;;;16.58;;
27632;SDS011;15046;50.930;13.334;2023-05-07T04:01:17;27.75;;;18.83;;
27632;SDS011;15046;50.930;13.334;2023-05-07T04:03:43;33.50;;;20.73;;
27632;SDS011;15046;50.930;13.334;2023-05-07T04:06:09;29.13;;;18.27;;
27632;SDS011;15046;50.930;13.334;2023-05-07T04:08:35;28.90;;;18.38;;
27632;SDS011;15046;50.930;13.334;2023-05-07T04:11:01;30.48;;;19.27;;
27632;SDS011;15046;50.930;13.334;2023-05-07T04:13:29;29.45;;;19.20;;
27632;SDS011;15046;50.930;13.334;2023-05-07T04:15:55;30.92;;;20.08;;
27632;SDS011;15046;50.930;13.334;2023-05-07T04:18:21;28.77;;;19.00;;
27632;SDS011;15046;50.930;13.334;2023-05-07T04:20:47;30.10;;;18.83;;
27632;SDS011;15046;50.930;13.334;2023-05-07T04:23:16;31.63;;;19.73;;
27632;SDS011;15046;50.930;13.334;2023-05-07T04:25:42;29.65;;;19.70;;
27632;SDS011;15046;50.930;13.334;2023-05-07T04:28:08;27.17;;;18.13;;
27632;SDS011;15046;50.930;13.334;2023-05-07T04:30:33;29.75;;;17.88;;
27632;SDS011;15046;50.930;13.334;2023-05-07T04:32:59;29.10;;;18.73;;
27632;SDS011;15046;50.930;13.334;2023-05-07T04:35:26;32.22;;;19.40;;
27632;SDS011;15046;50.930;13.334;2023-05-07T04:37:51;27.33;;;18.45;;
27632;SDS011;15046;50.930;13.334;2023-05-07T04:40:17;29.75;;;19.23;;
27632;SDS011;15046;50.930;13.334;2023-05-07T04:42:43;27.58;;;18.50;;
27632;SDS011;15046;50.930;13.334;2023-05-07T04:45:09;26.35;;;17.30;;
27632;SDS011;15046;50.930;13.334;2023-05-07T04:47:35;27.30;;;17.20;;
27632;SDS011;15046;50.930;13.334;2023-05-07T04:50:01;26.98;;;18.60;;
27632;SDS011;15046;50.930;13.334;2023-05-07T04:52:27;28.02;;;18.02;;
27632;SDS011;15046;50.930;13.334;2023-05-07T04:54:53;29.35;;;18.98;;
27632;SDS011;15046;50.930;13.334;2023-05-07T04:57:19;25.85;;;16.90;;
27632;SDS011;15046;50.930;13.334;2023-05-07T04:59:45;28.08;;;17.70;;
27632;SDS011;15046;50.930;13.334;2023-05-07T05:02:10;28.42;;;18.40;;
27632;SDS011;15046;50.930;13.334;2023-05-07T05:04:36;30.27;;;18.92;;
27632;SDS011;15046;50.930;13.334;2023-05-07T05:07:02;33.58;;;19.80;;
27632;SDS011;15046;50.930;13.334;2023-05-07T05:09:30;30.67;;;18.92;;
27632;SDS011;15046;50.930;13.334;2023-05-07T05:11:56;29.75;;;18.27;;
27632;SDS011;15046;50.930;13.334;2023-05-07T05:14:21;33.42;;;19.60;;
27632;SDS011;15046;50.930;13.334;2023-05-07T05:16:47;31.92;;;19.75;;
27632;SDS011;15046;50.930;13.334;2023-05-07T05:19:13;30.23;;;18.27;;
27632;SDS011;15046;50.930;13.334;2023-05-07T05:21:39;29.33;;;18.98;;
27632;SDS011;15046;50.930;13.334;2023-05-07T05:24:05;24.35;;;16.98;;
27632;SDS011;15046;50.930;13.334;2023-05-07T05:26:31;24.67;;;15.52;;
27632;SDS011;15046;50.930;13.334;2023-05-07T05:28:56;26.73;;;16.52;;
27632;SDS011;15046;50.930;13.334;2023-05-07T05:31:22;23.92;;;15.13;;
27632;SDS011;15046;50.930;13.334;2023-05-07T05:33:48;23.83;;;14.93;;
27632;SDS011;15046;50.930;13.334;2023-05-07T05:36:14;20.33;;;13.63;;
27632;SDS011;15046;50.930;13.334;2023-05-07T05:38:39;22.88;;;14.50;;
27632;SDS011;15046;50.930;13.334;2023-05-07T05:41:05;21.98;;;13.95;;
27632;SDS011;15046;50.930;13.334;2023-05-07T05:43:31;19.73;;;12.77;;
27632;SDS011;15046;50.930;13.334;2023-05-07T05:45:57;20.38;;;13.25;;
27632;SDS011;15046;50.930;13.334;2023-05-07T05:48:23;19.45;;;13.07;;
27632;SDS011;15046;50.930;13.334;2023-05-07T05:50:49;18.88;;;12.60;;
27632;SDS011;15046;50.930;13.334;2023-05-07T05:53:14;19.88;;;12.30;;
27632;SDS011;15046;50.930;13.334;2023-05-07T05:55:41;20.70;;;12.07;;
27632;SDS011;15046;50.930;13.334;2023-05-07T05:58:07;21.05;;;12.80;;
27632;SDS011;15046;50.930;13.334;2023-05-07T06:00:33;19.27;;;12.65;;
27632;SDS011;15046;50.930;13.334;2023-05-07T06:02:59;19.50;;;12.75;;
27632;SDS011;15046;50.930;13.334;2023-05-07T06:05:25;18.50;;;12.35;;
27632;SDS011;15046;50.930;13.334;2023-05-07T06:07:51;20.23;;;12.63;;
27632;SDS011;15046;50.930;13.334;2023-05-07T06:10:17;18.42;;;12.25;;
27632;SDS011;15046;50.930;13.334;2023-05-07T06:12:43;16.63;;;11.25;;
27632;SDS011;15046;50.930;13.334;2023-05-07T06:15:09;15.25;;;9.95;;
27632;SDS011;15046;50.930;13.334;2023-05-07T06:17:35;19.70;;;12.50;;
27632;SDS011;15046;50.930;13.334;2023-05-07T06:20:01;16.52;;;11.50;;
27632;SDS011;15046;50.930;13.334;2023-05-07T06:22:27;17.55;;;11.02;;
27632;SDS011;15046;50.930;13.334;2023-05-07T06:24:53;14.85;;;9.73;;
27632;SDS011;15046;50.930;13.334;2023-05-07T06:27:18;15.98;;;10.45;;
27632;SDS011;15046;50.930;13.334;2023-05-07T06:29:44;17.30;;;9.75;;
27632;SDS011;15046;50.930;13.334;2023-05-07T06:32:11;15.52;;;10.15;;
27632;SDS011;15046;50.930;13.334;2023-05-07T06:34:38;14.20;;;10.10;;
27632;SDS011;15046;50.930;13.334;2023-05-07T06:37:04;16.92;;;9.55;;
27632;SDS011;15046;50.930;13.334;2023-05-07T06:39:31;15.60;;;10.13;;
27632;SDS011;15046;50.930;13.334;2023-05-07T06:41:58;15.93;;;10.70;;
27632;SDS011;15046;50.930;13.334;2023-05-07T06:44:25;16.17;;;10.05;;
27632;SDS011;15046;50.930;13.334;2023-05-07T06:46:51;13.43;;;9.07;;
27632;SDS011;15046;50.930;13.334;2023-05-07T06:49:16;13.70;;;9.02;;
27632;SDS011;15046;50.930;13.334;2023-05-07T06:51:42;12.57;;;8.20;;
27632;SDS011;15046;50.930;13.334;2023-05-07T06:54:08;16.45;;;9.68;;
27632;SDS011;15046;50.930;13.334;2023-05-07T06:56:34;13.35;;;8.65;;
27632;SDS011;15046;50.930;13.334;2023-05-07T06:59:00;14.35;;;9.85;;
27632;SDS011;15046;50.930;13.334;2023-05-07T07:01:27;14.80;;;9.52;;
27632;SDS011;15046;50.930;13.334;2023-05-07T07:03:53;16.33;;;9.70;;
27632;SDS011;15046;50.930;13.334;2023-05-07T07:06:19;13.85;;;9.05;;
27632;SDS011;15046;50.930;13.334;2023-05-07T07:08:45;13.82;;;9.95;;
27632;SDS011;15046;50.930;13.334;2023-05-07T07:11:11;15.88;;;11.10;;
27632;SDS011;15046;50.930;13.334;2023-05-07T07:13:37;15.25;;;9.70;;
27632;SDS011;15046;50.930;13.334;2023-05-07T07:16:03;14.02;;;9.38;;
27632;SDS011;15046;50.930;13.334;2023-05-07T07:18:29;15.20;;;9.90;;
27632;SDS011;15046;50.930;13.334;2023-05-07T07:20:55;14.73;;;9.75;;
27632;SDS011;15046;50.930;13.334;2023-05-07T07:23:20;16.48;;;9.93;;
27632;SDS011;15046;50.930;13.334;2023-05-07T07:25:46;15.00;;;9.65;;
27632;SDS011;15046;50.930;13.334;2023-05-07T07:28:12;15.73;;;10.30;;
27632;SDS011;15046;50.930;13.334;2023-05-07T07:30:38;15.95;;;9.77;;
27632;SDS011;15046;50.930;13.334;2023-05-07T07:33:04;14.50;;;9.75;;
27632;SDS011;15046;50.930;13.334;2023-05-07T07:35:31;16.83;;;9.98;;
27632;SDS011;15046;50.930;13.334;2023-05-07T07:37:57;16.40;;;10.55;;
27632;SDS011;15046;50.930;13.334;2023-05-07T07:40:24;15.65;;;10.98;;
27632;SDS011;15046;50.930;13.334;2023-05-07T07:42:50;17.20;;;11.40;;
27632;SDS011;15046;50.930;13.334;2023-05-07T07:45:17;18.15;;;10.82;;
27632;SDS011;15046;50.930;13.334;2023-05-07T07:47:42;19.90;;;11.85;;
27632;SDS011;15046;50.930;13.334;2023-05-07T07:50:08;17.77;;;11.32;;
27632;SDS011;15046;50.930;13.334;2023-05-07T07:52:35;17.67;;;11.07;;
27632;SDS011;15046;50.930;13.334;2023-05-07T07:55:01;14.18;;;9.88;;
27632;SDS011;15046;50.930;13.334;2023-05-07T07:57:27;18.05;;;10.27;;
27632;SDS011;15046;50.930;13.334;2023-05-07T07:59:53;13.80;;;9.25;;
27632;SDS011;15046;50.930;13.334;2023-05-07T08:02:19;12.50;;;8.45;;
27632;SDS011;15046;50.930;13.334;2023-05-07T08:04:44;13.30;;;8.27;;
27632;SDS011;15046;50.930;13.334;2023-05-07T08:07:10;10.77;;;6.95;;
27632;SDS011;15046;50.930;13.334;2023-05-07T08:09:37;14.20;;;8.77;;
27632;SDS011;15046;50.930;13.334;2023-05-07T08:12:05;12.13;;;7.57;;
27632;SDS011;15046;50.930;13.334;2023-05-07T08:14:31;11.75;;;7.25;;
27632;SDS011;15046;50.930;13.334;2023-05-07T08:16:57;12.27;;;7.97;;
27632;SDS011;15046;50.930;13.334;2023-05-07T08:19:23;11.45;;;7.45;;
27632;SDS011;15046;50.930;13.334;2023-05-07T08:21:49;11.57;;;7.10;;
27632;SDS011;15046;50.930;13.334;2023-05-07T08:24:15;11.85;;;5.85;;
27632;SDS011;15046;50.930;13.334;2023-05-07T08:26:43;7.60;;;5.10;;
27632;SDS011;15046;50.930;13.334;2023-05-07T08:29:10;9.80;;;5.75;;
27632;SDS011;15046;50.930;13.334;2023-05-07T08:31:36;10.25;;;5.82;;
27632;SDS011;15046;50.930;13.334;2023-05-07T08:34:06;7.68;;;4.90;;
27632;SDS011;15046;50.930;13.334;2023-05-07T08:36:32;9.02;;;5.25;;
27632;SDS011;15046;50.930;13.334;2023-05-07T08:38:58;9.98;;;5.72;;
27632;SDS011;15046;50.930;13.334;2023-05-07T08:41:24;8.57;;;5.57;;
27632;SDS011;15046;50.930;13.334;2023-05-07T08:43:50;8.40;;;5.55;;
27632;SDS011;15046;50.930;13.334;2023-05-07T08:46:18;7.82;;;4.57;;
27632;SDS011;15046;50.930;13.334;2023-05-07T08:48:45;7.22;;;4.60;;
27632;SDS011;15046;50.930;13.334;2023-05-07T08:51:16;8.40;;;5.70;;
27632;SDS011;15046;50.930;13.334;2023-05-07T08:53:43;7.83;;;5.03;;
27632;SDS011;15046;50.930;13.334;2023-05-07T08:56:10;8.07;;;4.97;;
27632;SDS011;15046;50.930;13.334;2023-05-07T08:58:36;9.45;;;5.82;;
27632;SDS011;15046;50.930;13.334;2023-05-07T09:01:07;8.52;;;5.55;;
27632;SDS011;15046;50.930;13.334;2023-05-07T09:03:34;8.95;;;6.05;;
27632;SDS011;15046;50.930;13.334;2023-05-07T09:06:01;10.85;;;6.95;;
27632;SDS011;15046;50.930;13.334;2023-05-07T09:08:27;8.73;;;6.22;;
27632;SDS011;15046;50.930;13.334;2023-05-07T09:10:54;8.55;;;6.10;;
27632;SDS011;15046;50.930;13.334;2023-05-07T09:13:20;11.13;;;7.03;;
27632;SDS011;15046;50.930;13.334;2023-05-07T09:15:46;9.93;;;6.75;;
27632;SDS011;15046;50.930;13.334;2023-05-07T09:18:12;9.85;;;6.68;;
27632;SDS011;15046;50.930;13.334;2023-05-07T09:20:38;11.23;;;7.35;;
27632;SDS011;15046;50.930;13.334;2023-05-07T09:23:05;12.20;;;8.30;;
27632;SDS011;15046;50.930;13.334;2023-05-07T09:25:32;10.43;;;7.00;;
27632;SDS011;15046;50.930;13.334;2023-05-07T09:28:03;10.93;;;7.55;;
27632;SDS011;15046;50.930;13.334;2023-05-07T09:30:32;12.02;;;7.90;;
27632;SDS011;15046;50.930;13.334;2023-05-07T09:32:59;10.95;;;7.75;;
27632;SDS011;15046;50.930;13.334;2023-05-07T09:35:26;9.73;;;6.93;;
27632;SDS011;15046;50.930;13.334;2023-05-07T09:37:53;11.02;;;7.65;;
27632;SDS011;15046;50.930;13.334;2023-05-07T09:40:24;9.00;;;6.88;;
27632;SDS011;15046;50.930;13.334;2023-05-07T09:42:54;9.70;;;6.35;;
27632;SDS011;15046;50.930;13.334;2023-05-07T09:45:27;7.93;;;5.55;;
27632;SDS011;15046;50.930;13.334;2023-05-07T09:47:55;9.18;;;5.72;;
27632;SDS011;15046;50.930;13.334;2023-05-07T09:50:25;8.57;;;5.18;;
27632;SDS011;15046;50.930;13.334;2023-05-07T09:53:01;7.80;;;5.40;;
27632;SDS011;15046;50.930;13.334;2023-05-07T09:55:28;7.30;;;5.07;;
27632;SDS011;15046;50.930;13.334;2023-05-07T09:57:55;6.35;;;4.70;;
27632;SDS011;15046;50.930;13.334;2023-05-07T10:00:22;7.55;;;5.03;;
27632;SDS011;15046;50.930;13.334;2023-05-07T10:02:49;7.70;;;5.53;;
27632;SDS011;15046;50.930;13.334;2023-05-07T10:05:20;6.82;;;4.93;;
27632;SDS011;15046;50.930;13.334;2023-05-07T10:07:47;7.95;;;5.53;;
27632;SDS011;15046;50.930;13.334;2023-05-07T10:10:13;8.02;;;5.43;;
27632;SDS011;15046;50.930;13.334;2023-05-07T10:12:40;8.48;;;5.65;;
27632;SDS011;15046;50.930;13.334;2023-05-07T10:15:09;9.63;;;6.35;;
27632;SDS011;15046;50.930;13.334;2023-05-07T10:17:37;8.35;;;5.55;;
27632;SDS011;15046;50.930;13.334;2023-05-07T10:20:07;8.25;;;5.65;;
27632;SDS011;15046;50.930;13.334;2023-05-07T10:22:38;7.60;;;5.30;;
27632;SDS011;15046;50.930;13.334;2023-05-07T10:25:16;7.72;;;5.57;;
27632;SDS011;15046;50.930;13.334;2023-05-07T10:27:48;7.57;;;5.72;;
27632;SDS011;15046;50.930;13.334;2023-05-07T10:30:40;6.93;;;5.35;;
27632;SDS011;15046;50.930;13.334;2023-05-07T10:33:19;7.55;;;5.60;;
27632;SDS011;15046;50.930;13.334;2023-05-07T10:35:51;6.72;;;4.75;;
27632;SDS011;15046;50.930;13.334;2023-05-07T10:38:23;7.97;;;4.97;;
27632;SDS011;15046;50.930;13.334;2023-05-07T10:40:50;7.15;;;4.45;;
27632;SDS011;15046;50.930;13.334;2023-05-07T10:43:16;6.65;;;4.95;;
27632;SDS011;15046;50.930;13.334;2023-05-07T10:45:42;7.50;;;5.07;;
27632;SDS011;15046;50.930;13.334;2023-05-07T10:50:36;6.97;;;5.25;;
27632;SDS011;15046;50.930;13.334;2023-05-07T10:55:47;7.65;;;5.38;;
27632;SDS011;15046;50.930;13.334;2023-05-07T11:01:01;8.20;;;6.15;;
27632;SDS011;15046;50.930;13.334;2023-05-07T11:03:27;9.05;;;5.60;;
27632;SDS011;15046;50.930;13.334;2023-05-07T11:08:57;8.27;;;6.43;;
27632;SDS011;15046;50.930;13.334;2023-05-07T11:17:05;8.73;;;6.35;;
27632;SDS011;15046;50.930;13.334;2023-05-07T11:19:51;8.75;;;6.13;;
27632;SDS011;15046;50.930;13.334;2023-05-07T11:24:59;8.75;;;6.22;;
27632;SDS011;15046;50.930;13.334;2023-05-07T11:27:26;8.45;;;6.10;;
27632;SDS011;15046;50.930;13.334;2023-05-07T11:29:52;9.55;;;6.65;;
27632;SDS011;15046;50.930;13.334;2023-05-07T11:32:30;8.43;;;6.18;;
27632;SDS011;15046;50.930;13.334;2023-05-07T11:34:58;8.35;;;6.18;;
27632;SDS011;15046;50.930;13.334;2023-05-07T11:37:25;11.00;;;6.55;;
27632;SDS011;15046;50.930;13.334;2023-05-07T11:40:06;9.52;;;5.78;;
27632;SDS011;15046;50.930;13.334;2023-05-07T11:42:33;7.63;;;5.60;;
27632;SDS011;15046;50.930;13.334;2023-05-07T11:45:01;8.00;;;5.60;;
27632;SDS011;15046;50.930;13.334;2023-05-07T11:47:29;8.98;;;6.38;;
27632;SDS011;15046;50.930;13.334;2023-05-07T11:49:56;9.10;;;6.68;;
27632;SDS011;15046;50.930;13.334;2023-05-07T11:52:26;8.32;;;5.30;;
27632;SDS011;15046;50.930;13.334;2023-05-07T11:54:52;9.13;;;6.43;;
27632;SDS011;15046;50.930;13.334;2023-05-07T11:59:52;9.07;;;6.68;;
27632;SDS011;15046;50.930;13.334;2023-05-07T12:04:44;7.82;;;5.30;;
27632;SDS011;15046;50.930;13.334;2023-05-07T12:07:14;7.70;;;5.50;;
27632;SDS011;15046;50.930;13.334;2023-05-07T12:09:44;8.30;;;5.78;;
27632;SDS011;15046;50.930;13.334;2023-05-07T12:12:10;9.73;;;5.32;;
27632;SDS011;15046;50.930;13.334;2023-05-07T12:14:40;7.15;;;5.28;;
27632;SDS011;15046;50.930;13.334;2023-05-07T12:17:07;7.55;;;5.32;;
27632;SDS011;15046;50.930;13.334;2023-05-07T12:19:33;6.65;;;4.78;;
27632;SDS011;15046;50.930;13.334;2023-05-07T12:22:01;8.18;;;6.05;;
27632;SDS011;15046;50.930;13.334;2023-05-07T12:24:28;6.70;;;5.32;;
27632;SDS011;15046;50.930;13.334;2023-05-07T12:26:54;8.00;;;5.03;;
27632;SDS011;15046;50.930;13.334;2023-05-07T12:29:23;9.35;;;6.22;;
27632;SDS011;15046;50.930;13.334;2023-05-07T12:31:49;9.23;;;5.93;;
27632;SDS011;15046;50.930;13.334;2023-05-07T12:34:15;7.53;;;5.97;;
27632;SDS011;15046;50.930;13.334;2023-05-07T12:36:41;7.90;;;6.13;;
27632;SDS011;15046;50.930;13.334;2023-05-07T12:39:07;7.20;;;5.50;;
27632;SDS011;15046;50.930;13.334;2023-05-07T12:44:21;7.43;;;5.68;;
27632;SDS011;15046;50.930;13.334;2023-05-07T12:46:49;8.63;;;5.88;;
27632;SDS011;15046;50.930;13.334;2023-05-07T12:49:15;6.80;;;5.63;;
27632;SDS011;15046;50.930;13.334;2023-05-07T12:51:41;6.95;;;5.38;;
27632;SDS011;15046;50.930;13.334;2023-05-07T12:54:07;6.95;;;5.50;;
27632;SDS011;15046;50.930;13.334;2023-05-07T12:56:35;6.93;;;4.97;;
27632;SDS011;15046;50.930;13.334;2023-05-07T12:59:01;7.53;;;4.70;;
27632;SDS011;15046;50.930;13.334;2023-05-07T13:01:30;6.93;;;4.95;;
27632;SDS011;15046;50.930;13.334;2023-05-07T13:04:02;7.00;;;4.88;;
27632;SDS011;15046;50.930;13.334;2023-05-07T13:06:36;6.20;;;4.80;;
27632;SDS011;15046;50.930;13.334;2023-05-07T13:09:02;6.82;;;5.10;;
27632;SDS011;15046;50.930;13.334;2023-05-07T13:11:29;7.45;;;4.93;;
27632;SDS011;15046;50.930;13.334;2023-05-07T13:13:55;6.30;;;4.80;;
27632;SDS011;15046;50.930;13.334;2023-05-07T13:16:21;6.53;;;4.68;;
27632;SDS011;15046;50.930;13.334;2023-05-07T13:18:47;6.53;;;4.78;;
27632;SDS011;15046;50.930;13.334;2023-05-07T13:21:13;6.47;;;5.00;;
27632;SDS011;15046;50.930;13.334;2023-05-07T13:23:38;6.95;;;5.30;;
27632;SDS011;15046;50.930;13.334;2023-05-07T13:26:04;6.90;;;5.18;;
27632;SDS011;15046;50.930;13.334;2023-05-07T13:28:31;7.05;;;5.25;;
27632;SDS011;15046;50.930;13.334;2023-05-07T13:30:57;6.45;;;5.28;;
27632;SDS011;15046;50.930;13.334;2023-05-07T13:33:24;7.20;;;4.93;;
27632;SDS011;15046;50.930;13.334;2023-05-07T13:35:50;6.07;;;4.78;;
27632;SDS011;15046;50.930;13.334;2023-05-07T13:38:15;9.18;;;5.70;;
27632;SDS011;15046;50.930;13.334;2023-05-07T13:40:41;6.45;;;4.97;;
27632;SDS011;15046;50.930;13.334;2023-05-07T13:43:07;7.03;;;5.28;;
27632;SDS011;15046;50.930;13.334;2023-05-07T13:45:33;7.80;;;5.78;;
27632;SDS011;15046;50.930;13.334;2023-05-07T13:47:58;8.13;;;4.90;;
27632;SDS011;15046;50.930;13.334;2023-05-07T13:50:24;6.68;;;4.82;;
27632;SDS011;15046;50.930;13.334;2023-05-07T13:52:52;7.65;;;5.40;;
27632;SDS011;15046;50.930;13.334;2023-05-07T13:55:18;7.93;;;5.85;;
27632;SDS011;15046;50.930;13.334;2023-05-07T13:57:44;7.22;;;5.90;;
27632;SDS011;15046;50.930;13.334;2023-05-07T14:00:11;6.00;;;4.60;;
27632;SDS011;15046;50.930;13.334;2023-05-07T14:02:37;7.20;;;4.80;;
27632;SDS011;15046;50.930;13.334;2023-05-07T14:05:03;7.60;;;5.90;;
27632;SDS011;15046;50.930;13.334;2023-05-07T14:07:29;7.70;;;5.60;;
27632;SDS011;15046;50.930;13.334;2023-05-07T14:09:56;7.50;;;4.72;;
27632;SDS011;15046;50.930;13.334;2023-05-07T14:12:22;6.50;;;4.95;;
27632;SDS011;15046;50.930;13.334;2023-05-07T14:14:48;6.82;;;5.25;;
27632;SDS011;15046;50.930;13.334;2023-05-07T14:17:15;7.95;;;5.00;;
27632;SDS011;15046;50.930;13.334;2023-05-07T14:19:42;7.32;;;4.90;;
27632;SDS011;15046;50.930;13.334;2023-05-07T14:22:08;7.45;;;5.30;;
27632;SDS011;15046;50.930;13.334;2023-05-07T14:24:34;6.75;;;4.60;;
27632;SDS011;15046;50.930;13.334;2023-05-07T14:27:00;5.82;;;4.63;;
27632;SDS011;15046;50.930;13.334;2023-05-07T14:29:26;7.75;;;5.25;;
27632;SDS011;15046;50.930;13.334;2023-05-07T14:31:52;8.27;;;5.43;;
27632;SDS011;15046;50.930;13.334;2023-05-07T14:34:18;7.07;;;5.15;;
27632;SDS011;15046;50.930;13.334;2023-05-07T14:36:44;6.88;;;5.38;;
27632;SDS011;15046;50.930;13.334;2023-05-07T14:39:10;9.77;;;5.55;;
27632;SDS011;15046;50.930;13.334;2023-05-07T14:41:35;7.53;;;5.10;;
27632;SDS011;15046;50.930;13.334;2023-05-07T14:44:01;6.85;;;5.07;;
27632;SDS011;15046;50.930;13.334;2023-05-07T14:46:29;7.68;;;5.00;;